Time;durP1;ratioP1;P1;durP2;ratioP2;P2;SDS_P1;SDS_P2;PMS_P1;PMS_P2;Temp;Humidity;BMP_temperature;BMP_pressure;BME280_temperature;BME280_humidity;BME280_pressure;Samples;Min_cycle;Max_cycle;Signal;HPM_P1;HPM_P2
2022/12/22 03:27:08;;;;;;;7.28;6.78;;;;;;;5.75;98.20;100209.50;4177825;28;21544;-56
2022/12/22 03:29:10;;;;;;;6.45;6.00;;;;;;;5.77;98.11;100202.16;4179360;28;20230;-56
2022/12/22 03:31:13;;;;;;;6.82;6.32;;;;;;;5.79;98.22;100213.53;4178472;28;20259;-57
2022/12/22 03:33:16;;;;;;;8.40;7.80;;;;;;;5.81;98.01;100205.34;4178915;28;20723;-57
2022/12/22 03:35:19;;;;;;;7.13;6.63;;;;;;;5.80;98.06;100201.84;4177830;28;20324;-57
2022/12/22 03:37:21;;;;;;;7.40;6.90;;;;;;;5.81;97.94;100197.31;4179225;28;20273;-54
2022/12/22 03:39:23;;;;;;;7.45;6.95;;;;;;;5.81;97.70;100194.63;4194632;28;20293;-54
2022/12/22 03:48:26;;;;;;;6.45;6.03;;;;;;;5.81;97.82;100192.78;4162815;28;20704;-58
2022/12/22 03:50:29;;;;;;;7.35;6.85;;;;;;;5.82;97.97;100191.78;4172590;28;20699;-59
2022/12/22 03:52:31;;;;;;;6.50;6.05;;;;;;;5.84;97.95;100192.47;4165802;28;20925;-59
2022/12/22 03:54:33;;;;;;;6.78;6.28;;;;;;;5.85;98.13;100196.84;4178860;28;20281;-59
2022/12/22 03:56:36;;;;;;;6.55;6.07;;;;;;;5.86;97.82;100184.25;4176631;28;20321;-57
2022/12/22 03:58:38;;;;;;;6.80;6.30;;;;;;;5.86;97.89;100178.91;4177310;28;20299;-60
2022/12/22 04:00:40;;;;;;;7.53;7.00;;;;;;;5.88;97.95;100183.13;4174863;28;20326;-58
2022/12/22 04:02:43;;;;;;;6.88;6.38;;;;;;;5.87;98.30;100173.38;4190441;28;20294;-58
2022/12/22 04:04:47;;;;;;;6.22;5.80;;;;;;;5.87;98.34;100169.88;4179066;28;20265;-58
2022/12/22 04:06:49;;;;;;;7.90;7.38;;;;;;;5.86;98.17;100165.50;4179035;28;20258;-59
2022/12/22 04:08:52;;;;;;;8.77;8.18;;;;;;;5.87;98.38;100157.31;4169346;28;20287;-58
2022/12/22 04:13:14;;;;;;;6.40;5.95;;;;;;;5.90;98.54;100150.78;4180351;28;20286;-59
2022/12/22 04:15:16;;;;;;;8.48;7.88;;;;;;;5.91;98.63;100153.31;4164980;28;20235;-56
2022/12/22 04:17:19;;;;;;;7.97;7.43;;;;;;;5.91;98.68;100150.63;4172883;28;20282;-58
2022/12/22 04:19:24;;;;;;;7.70;7.20;;;;;;;5.91;98.09;100141.75;4181659;28;20277;-60
2022/12/22 04:21:30;;;;;;;7.13;6.63;;;;;;;5.92;98.61;100144.28;4183881;28;20332;-58
2022/12/22 04:23:32;;;;;;;7.47;6.97;;;;;;;5.94;98.71;100138.72;4179169;28;20311;-59
2022/12/22 04:25:35;;;;;;;7.00;6.50;;;;;;;5.92;98.19;100146.09;4164165;28;20661;-60
2022/12/22 04:27:37;;;;;;;7.20;6.70;;;;;;;5.95;98.48;100143.09;4165454;28;20278;-59
2022/12/22 04:29:39;;;;;;;6.57;6.07;;;;;;;5.98;97.82;100137.44;4165369;28;20287;-58
2022/12/22 04:31:41;;;;;;;7.35;6.85;;;;;;;6.00;97.95;100130.06;4174573;28;20315;-58
2022/12/22 04:33:44;;;;;;;7.85;7.30;;;;;;;6.01;97.95;100137.13;4177656;28;20191;-60
2022/12/22 04:35:46;;;;;;;7.22;6.72;;;;;;;6.04;97.43;100144.84;4177105;28;20302;-58
2022/12/22 04:37:50;;;;;;;6.32;5.90;;;;;;;6.03;97.90;100139.63;4177320;28;20283;-57
2022/12/22 04:39:52;;;;;;;8.05;7.50;;;;;;;6.05;97.44;100125.09;4173844;28;20282;-59
2022/12/22 04:41:54;;;;;;;8.13;7.55;;;;;;;6.03;97.40;100120.88;4171342;28;20687;-58
2022/12/22 04:43:57;;;;;;;6.65;6.18;;;;;;;6.07;97.54;100125.75;4176629;28;20310;-59
2022/12/22 04:45:59;;;;;;;8.38;7.80;;;;;;;6.08;97.41;100121.22;4175067;28;20317;-59
2022/12/22 04:48:01;;;;;;;7.95;7.43;;;;;;;6.07;97.46;100115.03;4173732;28;20734;-57
2022/12/22 04:50:04;;;;;;;8.05;7.50;;;;;;;6.05;97.61;100117.03;4178901;28;20318;-58
2022/12/22 04:52:07;;;;;;;7.20;6.70;;;;;;;6.09;98.01;100114.88;4176619;28;20278;-59
2022/12/22 04:54:11;;;;;;;7.95;7.38;;;;;;;6.10;97.57;100111.19;4175521;28;20195;-60
2022/12/22 04:56:13;;;;;;;7.13;6.63;;;;;;;6.06;97.92;100107.97;4172555;28;20314;-58
2022/12/22 04:58:15;;;;;;;7.10;6.60;;;;;;;6.11;97.41;100108.34;4175702;28;20210;-58
2022/12/22 05:00:19;;;;;;;9.82;9.13;;;;;;;6.12;96.91;100111.84;4175776;28;20314;-59
2022/12/22 05:02:21;;;;;;;7.97;7.45;;;;;;;6.12;97.02;100104.63;4174365;28;20278;-57
2022/12/22 05:04:24;;;;;;;7.10;6.60;;;;;;;6.13;97.28;100106.34;4179850;28;20212;-58
2022/12/22 05:06:26;;;;;;;6.30;5.88;;;;;;;6.15;96.83;100099.97;4171668;28;20303;-59
2022/12/22 05:08:28;;;;;;;7.43;6.93;;;;;;;6.15;96.47;100108.03;4176106;28;20298;-56
2022/12/22 05:10:32;;;;;;;8.35;7.78;;;;;;;6.13;96.46;100090.25;4167048;28;20314;-58
2022/12/22 05:14:54;;;;;;;8.93;8.32;;;;;;;6.16;96.08;100091.78;4167166;28;20205;-58
2022/12/22 05:16:56;;;;;;;8.32;7.72;;;;;;;6.17;95.93;100096.09;4171913;28;20652;-58
2022/12/22 05:18:59;;;;;;;9.32;8.65;;;;;;;6.17;96.02;100092.59;4180045;28;20282;-57
2022/12/22 05:21:03;;;;;;;7.22;6.72;;;;;;;6.18;95.68;100091.59;4179178;28;20302;-58
2022/12/22 05:23:05;;;;;;;7.72;7.20;;;;;;;6.17;95.47;100077.34;4179945;28;20302;-57
2022/12/22 05:25:08;;;;;;;9.68;9.00;;;;;;;6.18;95.86;100075.53;4179418;28;20289;-58
2022/12/22 05:27:12;;;;;;;7.35;6.85;;;;;;;6.20;95.70;100076.19;4174573;28;20303;-58
2022/12/22 05:29:14;;;;;;;7.65;7.15;;;;;;;6.21;95.24;100075.19;4173636;28;20282;-58
2022/12/22 05:31:19;;;;;;;8.52;7.93;;;;;;;6.23;95.38;100078.53;4181391;28;20327;-58
2022/12/22 05:33:21;;;;;;;7.45;6.95;;;;;;;6.22;95.86;100071.47;4169134;28;20267;-58
2022/12/22 05:35:23;;;;;;;6.78;6.32;;;;;;;6.21;96.12;100073.34;4175531;28;20318;-58
2022/12/22 05:37:25;;;;;;;7.22;6.72;;;;;;;6.22;95.95;100076.84;4179256;28;20314;-57
2022/12/22 05:39:28;;;;;;;7.05;6.55;;;;;;;6.23;96.28;100068.63;4180183;28;20277;-58
2022/12/22 05:41:30;;;;;;;7.88;7.35;;;;;;;6.22;96.53;100069.66;4174345;28;20318;-56
2022/12/22 05:43:34;;;;;;;7.53;7.03;;;;;;;6.22;96.68;100061.63;4174657;28;20309;-58
2022/12/22 05:45:36;;;;;;;6.95;6.55;;;;;;;6.21;96.91;100059.94;4173843;28;20313;-57
2022/12/22 05:47:39;;;;;;;6.63;6.22;;;;;;;6.20;96.95;100057.41;4171739;28;20292;-58
2022/12/22 05:49:41;;;;;;;7.70;7.25;;;;;;;6.21;96.84;100049.19;4177942;28;20214;-59
2022/12/22 05:51:43;;;;;;;19.63;18.45;;;;;;;6.22;97.06;100042.84;4177545;28;20311;-58
2022/12/22 05:53:46;;;;;;;7.40;7.00;;;;;;;6.22;96.98;100045.53;4177952;28;20274;-58
2022/12/22 05:55:48;;;;;;;9.77;9.18;;;;;;;6.23;97.06;100043.66;4180524;28;20233;-58
2022/12/22 05:57:50;;;;;;;11.43;10.77;;;;;;;6.22;96.84;100050.88;4191874;28;20274;-57
2022/12/22 05:59:54;;;;;;;19.27;18.10;;;;;;;6.22;96.88;100040.16;4178841;28;20294;-57
2022/12/22 06:01:56;;;;;;;11.60;10.88;;;;;;;6.26;96.26;100043.34;4187349;28;20775;-58
2022/12/22 06:03:58;;;;;;;8.90;8.38;;;;;;;6.24;95.94;100037.31;4193538;28;20302;-57
2022/12/22 06:06:01;;;;;;;13.35;12.55;;;;;;;6.27;96.30;100036.94;4182849;28;20339;-59
2022/12/22 06:08:04;;;;;;;9.65;9.13;;;;;;;6.27;95.91;100036.94;4179873;28;20285;-57
2022/12/22 06:10:08;;;;;;;7.43;6.97;;;;;;;6.24;95.94;100027.41;4182147;28;20634;-59
2022/12/22 06:12:10;;;;;;;8.57;8.07;;;;;;;6.28;96.03;100025.22;4178331;28;20651;-59
2022/12/22 06:14:13;;;;;;;8.05;7.55;;;;;;;6.27;95.81;100021.72;4179305;28;20639;-57
2022/12/22 06:16:16;;;;;;;8.15;7.65;;;;;;;6.27;96.34;100023.53;4185024;28;20568;-59
2022/12/22 06:18:19;;;;;;;8.98;8.48;;;;;;;6.25;96.32;100020.19;4178945;28;20271;-60
2022/12/22 06:20:21;;;;;;;7.30;6.88;;;;;;;6.27;96.25;100020.88;4180849;28;20322;-59
2022/12/22 06:22:23;;;;;;;7.32;6.88;;;;;;;6.26;96.74;100014.69;4193942;28;20687;-59
2022/12/22 06:24:25;;;;;;;7.22;6.78;;;;;;;6.25;96.31;100007.66;4187508;28;20294;-59
2022/12/22 06:26:28;;;;;;;7.75;7.25;;;;;;;6.26;96.27;100009.31;4176924;28;20303;-58
2022/12/22 06:28:31;;;;;;;6.93;6.53;;;;;;;6.26;96.65;100003.94;4175661;28;20666;-59
2022/12/22 06:30:33;;;;;;;8.35;7.85;;;;;;;6.26;96.72;100000.44;4180161;28;20327;-60
2022/12/22 06:32:38;;;;;;;7.75;7.25;;;;;;;6.25;96.82;99993.38;4177198;28;20277;-58
2022/12/22 06:34:40;;;;;;;7.53;7.07;;;;;;;6.25;96.89;99996.94;4180181;28;20284;-59
2022/12/22 06:36:42;;;;;;;7.05;6.55;;;;;;;6.26;97.26;99993.22;4176270;28;20857;-59
2022/12/22 06:38:44;;;;;;;6.75;6.32;;;;;;;6.26;96.55;100003.94;4176219;28;20289;-58
2022/12/22 06:40:47;;;;;;;9.00;8.40;;;;;;;6.26;96.65;99998.59;4177349;28;20310;-58
2022/12/22 06:45:10;;;;;;;9.35;8.80;;;;;;;6.28;96.55;99999.25;4181080;28;20293;-59
2022/12/22 06:47:12;;;;;;;9.23;8.70;;;;;;;6.29;96.75;100002.78;4179463;28;20275;-59
2022/12/22 06:49:15;;;;;;;9.75;9.15;;;;;;;6.29;96.77;100002.78;4181840;28;20304;-59
2022/12/22 06:51:18;;;;;;;7.90;7.43;;;;;;;6.28;96.95;99998.41;4181058;28;20759;-59
2022/12/22 06:53:20;;;;;;;7.35;6.90;;;;;;;6.28;96.74;99998.41;4190268;28;20214;-59
2022/12/22 06:55:22;;;;;;;7.65;7.18;;;;;;;6.28;96.71;99995.72;4177006;28;20317;-59
2022/12/22 06:57:25;;;;;;;7.63;7.18;;;;;;;6.28;96.78;99999.25;4184108;28;20909;-58
2022/12/22 06:59:27;;;;;;;6.82;6.43;;;;;;;6.28;96.98;99990.38;4176531;28;20739;-55
2022/12/22 07:01:29;;;;;;;7.18;6.78;;;;;;;6.29;96.96;99994.75;4181962;28;20315;-59
2022/12/22 07:03:32;;;;;;;6.90;6.50;;;;;;;6.28;97.03;99987.69;4183288;28;20292;-59
2022/12/22 07:05:35;;;;;;;6.82;6.43;;;;;;;6.29;96.79;99995.56;4176495;28;20322;-59
2022/12/22 07:07:37;;;;;;;7.22;6.82;;;;;;;6.29;96.94;99986.69;4178706;28;20287;-60
2022/12/22 07:09:40;;;;;;;7.10;6.70;;;;;;;6.30;96.49;99989.22;4178469;28;20281;-60
2022/12/22 07:11:42;;;;;;;7.45;7.05;;;;;;;6.30;96.76;99991.88;4186781;28;20311;-59
2022/12/22 07:13:45;;;;;;;7.47;7.05;;;;;;;6.30;96.77;99991.88;4187285;28;20641;-59
2022/12/22 07:15:47;;;;;;;7.90;7.43;;;;;;;6.29;96.92;99990.19;4175198;28;20320;-59
2022/12/22 07:17:53;;;;;;;7.47;7.03;;;;;;;6.30;96.38;99989.22;4183057;28;20906;-59
2022/12/22 07:19:55;;;;;;;8.30;7.80;;;;;;;6.33;96.04;99982.66;4176066;28;20286;-59
2022/12/22 07:21:59;;;;;;;6.80;6.40;;;;;;;6.34;95.88;99981.66;4177435;28;20323;-58
2022/12/22 07:24:01;;;;;;;7.30;6.88;;;;;;;6.34;95.62;99981.66;4192039;28;20610;-59
2022/12/22 07:26:04;;;;;;;7.40;6.95;;;;;;;6.35;95.42;99969.06;4181393;28;20337;-59
2022/12/22 07:28:07;;;;;;;7.32;6.90;;;;;;;6.35;95.40;99971.75;4179085;28;20658;-58
2022/12/22 07:30:10;;;;;;;8.15;7.65;;;;;;;6.35;95.26;99966.38;4167496;28;20294;-57
2022/12/22 07:32:12;;;;;;;10.27;9.60;;;;;;;6.36;95.87;99976.94;4176002;28;20287;-55
2022/12/22 07:34:15;;;;;;;8.40;7.90;;;;;;;6.36;95.72;99973.44;4171021;28;20275;-58
2022/12/22 07:36:19;;;;;;;8.82;8.27;;;;;;;6.36;95.58;99970.75;4168777;28;20320;-57
2022/12/22 07:38:23;;;;;;;8.38;7.88;;;;;;;6.37;95.98;99969.75;4173261;28;20732;-58
2022/12/22 07:40:25;;;;;;;7.63;7.15;;;;;;;6.37;95.79;99967.09;4169417;28;20318;-58
2022/12/22 07:42:44;;;;;;;7.60;7.15;;;;;;;6.36;96.10;99968.06;4173594;28;20297;-59
2022/12/22 07:44:47;;;;;;;7.93;7.43;;;;;;;6.36;95.64;99965.41;4177080;28;20372;-58
2022/12/22 07:46:49;;;;;;;7.28;6.78;;;;;;;6.36;95.41;99966.22;4169985;28;20667;-59
2022/12/22 07:51:11;;;;;;;7.78;7.28;;;;;;;6.36;95.98;99968.91;4180953;28;20322;-57
2022/12/22 07:53:13;;;;;;;7.57;7.13;;;;;;;6.36;96.08;99960.84;4176954;28;20752;-57
2022/12/22 07:55:17;;;;;;;8.73;8.15;;;;;;;6.37;96.32;99953.66;4176146;28;20296;-59
2022/12/22 07:57:19;;;;;;;9.07;8.48;;;;;;;6.36;96.42;99950.13;4181418;28;20646;-58
2022/12/22 07:59:21;;;;;;;7.03;6.53;;;;;;;6.38;96.41;99944.59;4177383;28;20195;-59
2022/12/22 08:01:24;;;;;;;6.93;6.53;;;;;;;6.37;96.56;99946.44;4166794;28;20314;-58
2022/12/22 08:03:26;;;;;;;7.30;6.80;;;;;;;6.38;96.72;99944.59;4174795;28;20278;-59
2022/12/22 08:05:28;;;;;;;6.88;6.40;;;;;;;6.38;96.55;99940.09;4168000;28;20327;-59
2022/12/22 08:07:31;;;;;;;7.10;6.70;;;;;;;6.39;96.74;99947.13;4172491;28;20295;-60
2022/12/22 08:09:33;;;;;;;6.90;6.50;;;;;;;6.41;96.75;99941.56;4177317;28;20286;-60
2022/12/22 08:11:37;;;;;;;7.57;7.07;;;;;;;6.40;96.91;99940.75;4180643;28;20309;-59
2022/12/22 08:13:40;;;;;;;7.13;6.63;;;;;;;6.40;97.11;99939.94;4173879;28;20245;-58
2022/12/22 08:15:43;;;;;;;9.40;8.77;;;;;;;6.41;96.65;99931.72;4180089;28;20325;-59
2022/12/22 08:17:45;;;;;;;8.02;7.50;;;;;;;6.40;96.96;99935.38;4179294;28;20317;-59
2022/12/22 08:19:48;;;;;;;8.35;7.82;;;;;;;6.42;96.87;99940.59;4181104;28;20603;-58
2022/12/22 08:21:50;;;;;;;8.90;8.30;;;;;;;6.43;96.62;99923.50;4180193;28;20326;-57
2022/12/22 08:23:52;;;;;;;6.75;6.35;;;;;;;6.43;96.33;99918.94;4181525;28;20272;-57
2022/12/22 08:25:59;;;;;;;7.57;7.18;;;;;;;6.44;96.57;99928.69;4180163;28;20777;-58
2022/12/22 08:28:02;;;;;;;7.50;7.00;;;;;;;6.44;96.94;99927.81;4168009;28;20293;-59
2022/12/22 08:30:07;;;;;;;8.38;7.85;;;;;;;6.45;97.02;99922.28;4172876;28;20306;-58
2022/12/22 08:32:10;;;;;;;7.65;7.15;;;;;;;6.45;97.00;99918.78;4164806;28;20287;-59
2022/12/22 08:34:14;;;;;;;6.72;6.32;;;;;;;6.46;97.14;99918.63;4176278;28;20296;-59
2022/12/22 08:36:17;;;;;;;6.63;6.25;;;;;;;6.47;97.19;99911.41;4178281;28;20723;-58
2022/12/22 08:38:19;;;;;;;6.93;6.40;;;;;;;6.48;97.46;99913.06;4170316;28;20274;-58
2022/12/22 08:40:24;;;;;;;7.15;6.65;;;;;;;6.48;97.62;99911.22;4180662;28;20241;-59
2022/12/22 08:42:26;;;;;;;5.97;5.47;;;;;;;6.49;97.73;99914.75;4181378;28;20283;-57
2022/12/22 08:44:30;;;;;;;16.00;8.85;;;;;;;6.49;97.55;99906.72;4180355;28;20279;-57
2022/12/22 08:46:32;;;;;;;5.93;5.47;;;;;;;6.49;97.97;99904.88;4179991;28;20318;-58
2022/12/22 08:48:34;;;;;;;6.07;5.57;;;;;;;6.49;97.86;99902.19;4181220;28;20277;-59
2022/12/22 08:50:37;;;;;;;8.68;8.07;;;;;;;6.46;97.86;99902.53;4179635;28;20318;-59
2022/12/22 08:52:39;;;;;;;6.75;6.28;;;;;;;6.50;97.59;99903.00;4181399;28;20218;-57
2022/12/22 08:54:41;;;;;;;6.88;6.47;;;;;;;6.51;98.03;99899.31;4181071;28;20274;-58
2022/12/22 08:56:44;;;;;;;7.07;6.68;;;;;;;6.52;97.89;99890.28;4179787;28;20329;-57
2022/12/22 08:58:46;;;;;;;7.93;7.43;;;;;;;6.52;97.98;99890.28;4174594;28;20298;-58
2022/12/22 09:00:50;;;;;;;7.45;6.95;;;;;;;6.53;97.77;99880.38;4173845;28;20784;-57
2022/12/22 09:02:52;;;;;;;7.15;6.75;;;;;;;6.55;97.88;99889.06;4171547;28;20286;-58
2022/12/22 09:04:54;;;;;;;8.25;7.78;;;;;;;6.57;97.67;99884.41;4178402;28;20287;-56
2022/12/22 09:06:56;;;;;;;6.93;6.53;;;;;;;6.57;97.77;99893.28;4166701;28;20327;-58
2022/12/22 09:09:00;;;;;;;6.90;6.50;;;;;;;6.56;97.90;99880.84;4180972;28;20286;-57
2022/12/22 09:11:03;;;;;;;6.95;6.45;;;;;;;6.58;97.60;99883.38;4180113;28;20324;-58
2022/12/22 09:13:05;;;;;;;30.85;11.73;;;;;;;6.58;97.45;99878.00;4177667;28;20733;-56
2022/12/22 09:15:08;;;;;;;11.13;8.65;;;;;;;6.60;97.40;99874.16;4173575;28;20288;-58
2022/12/22 09:17:12;;;;;;;7.20;6.80;;;;;;;6.61;97.40;99874.97;4174011;28;20284;-59
2022/12/22 09:19:14;;;;;;;7.15;6.65;;;;;;;6.61;97.18;99873.13;4180418;28;20278;-58
2022/12/22 09:21:17;;;;;;;7.53;6.90;;;;;;;6.63;97.12;99878.31;4179547;28;20238;-57
2022/12/22 09:23:19;;;;;;;6.35;5.97;;;;;;;6.61;96.73;99874.97;4167829;28;20279;-57
2022/12/22 09:25:21;;;;;;;11.27;7.10;;;;;;;6.62;96.82;99869.44;4179111;28;20314;-57
2022/12/22 09:27:24;;;;;;;87.72;23.17;;;;;;;6.64;96.86;99866.59;4179064;28;20278;-58
2022/12/22 09:29:26;;;;;;;105.80;27.15;;;;;;;6.65;96.64;99868.28;4180618;28;20282;-57
2022/12/22 09:31:29;;;;;;;51.38;15.27;;;;;;;6.66;96.58;99861.88;4179695;28;20668;-57
2022/12/22 09:33:35;;;;;;;20.98;9.23;;;;;;;6.67;96.58;99855.50;4179003;28;20227;-58
2022/12/22 09:35:40;;;;;;;42.45;12.93;;;;;;;6.68;96.68;99862.56;4170982;28;20334;-59
2022/12/22 09:37:43;;;;;;;48.90;14.68;;;;;;;6.70;97.16;99854.34;4180452;28;20279;-58
2022/12/22 09:39:45;;;;;;;46.60;15.05;;;;;;;6.69;97.33;99850.78;4180033;28;20745;-59
2022/12/22 09:41:49;;;;;;;47.38;14.48;;;;;;;6.70;97.42;99855.16;4179703;28;20236;-59
2022/12/22 09:43:52;;;;;;;91.53;23.35;;;;;;;6.71;97.39;99845.25;4176551;28;20284;-59
2022/12/22 09:45:54;;;;;;;171.57;40.73;;;;;;;6.72;97.36;99847.75;4171250;28;20324;-58
2022/12/22 09:47:56;;;;;;;173.47;42.67;;;;;;;6.72;97.14;99845.06;4175759;28;20705;-57
2022/12/22 09:50:00;;;;;;;177.15;43.30;;;;;;;6.74;97.49;99844.91;4168867;28;20741;-57
2022/12/22 09:52:04;;;;;;;174.40;42.27;;;;;;;6.73;97.46;99838.72;4169039;28;20304;-56
2022/12/22 09:54:06;;;;;;;176.50;43.58;;;;;;;6.75;97.17;99830.50;4176661;28;20717;-59
2022/12/22 09:56:11;;;;;;;172.97;42.07;;;;;;;6.75;97.27;99833.16;4178327;28;20315;-57
2022/12/22 09:58:17;;;;;;;164.43;40.33;;;;;;;6.76;97.52;99833.00;4175614;28;20705;-58
2022/12/22 10:00:22;;;;;;;160.95;42.03;;;;;;;6.76;97.47;99827.63;4162939;28;20322;-58
2022/12/22 10:02:28;;;;;;;160.65;41.33;;;;;;;6.78;97.41;99830.13;4163156;28;20286;-57
2022/12/22 10:04:45;;;;;;;162.40;41.35;;;;;;;6.78;96.91;99820.22;4163847;28;20282;-58
2022/12/22 10:06:54;;;;;;;161.32;41.72;;;;;;;6.78;96.49;99822.09;4186832;28;20332;-58
2022/12/22 10:08:56;;;;;;;163.77;41.72;;;;;;;6.78;96.20;99824.78;4176336;28;20285;-59
2022/12/22 10:10:58;;;;;;;162.60;41.55;;;;;;;6.77;95.99;99810.53;4169290;28;20653;-58
2022/12/22 10:13:02;;;;;;;155.18;41.97;;;;;;;6.80;96.28;99809.31;4179793;28;20281;-59
2022/12/22 10:15:04;;;;;;;146.30;40.33;;;;;;;6.81;96.47;99816.38;4186336;28;20679;-59
2022/12/22 10:17:21;;;;;;;151.55;41.60;;;;;;;6.83;96.52;99822.38;4181503;28;20712;-58
2022/12/22 10:19:23;;;;;;;150.18;40.83;;;;;;;6.84;96.17;99816.84;4179718;28;20274;-59
2022/12/22 10:21:26;;;;;;;149.27;40.25;;;;;;;6.83;96.24;99820.56;4179001;28;20310;-57
2022/12/22 10:23:30;;;;;;;155.32;40.33;;;;;;;6.87;96.33;99817.53;4179596;28;20205;-56
2022/12/22 10:25:34;;;;;;;151.10;41.15;;;;;;;6.88;96.50;99817.34;4166885;28;20395;-58
2022/12/22 10:27:37;;;;;;;148.20;39.90;;;;;;;6.88;96.61;99806.63;4179116;28;20287;-59
2022/12/22 10:29:39;;;;;;;153.60;40.70;;;;;;;6.89;96.09;99807.44;4179407;28;20278;-58
2022/12/22 10:32:03;;;;;;;151.77;39.97;;;;;;;6.91;96.14;99803.59;4173000;28;21144;-57
2022/12/22 10:34:13;;;;;;;153.85;40.10;;;;;;;6.91;96.48;99797.34;4163702;28;21104;-57
2022/12/22 10:36:20;;;;;;;152.98;41.45;;;;;;;6.89;95.78;99794.03;4170044;28;20736;-58
2022/12/22 10:38:25;;;;;;;154.23;41.17;;;;;;;6.91;95.83;99787.47;4163366;28;20298;-59
2022/12/22 10:40:30;;;;;;;155.40;41.30;;;;;;;6.93;95.61;99788.13;4178264;28;20309;-59
2022/12/22 10:42:32;;;;;;;153.98;40.97;;;;;;;6.92;95.76;99791.00;4175835;28;20755;-59
2022/12/22 10:44:36;;;;;;;160.70;41.53;;;;;;;6.95;95.85;99782.59;4172854;28;20220;-58
2022/12/22 10:46:40;;;;;;;182.85;43.45;;;;;;;6.94;95.91;99772.84;4162148;28;20326;-58
2022/12/22 10:48:43;;;;;;;160.68;42.15;;;;;;;6.94;95.27;99770.16;4163496;28;20304;-56
2022/12/22 10:50:46;;;;;;;160.55;42.70;;;;;;;6.94;95.44;99781.72;4178320;28;20657;-59
2022/12/22 10:52:53;;;;;;;159.80;42.58;;;;;;;6.95;94.96;99774.53;4177021;28;20286;-59
2022/12/22 10:55:14;;;;;;;159.63;43.22;;;;;;;6.95;94.87;99769.16;4173945;28;20286;-57
2022/12/22 10:57:29;;;;;;;156.85;41.80;;;;;;;6.98;95.00;99776.84;4177278;28;20534;-56
2022/12/22 10:59:32;;;;;;;160.70;41.78;;;;;;;6.98;95.18;99766.13;4169134;28;20275;-57
2022/12/22 11:01:36;;;;;;;161.20;41.55;;;;;;;6.98;95.10;99772.31;4167388;28;20317;-57
2022/12/22 11:03:38;;;;;;;164.25;42.97;;;;;;;6.98;94.50;99771.50;4179358;28;20353;-58
2022/12/22 11:05:41;;;;;;;157.70;40.78;;;;;;;6.99;94.38;99773.13;4178271;28;20318;-56
2022/12/22 11:07:45;;;;;;;158.90;42.63;;;;;;;7.00;94.75;99761.41;4163215;28;20303;-58
2022/12/22 11:09:48;;;;;;;160.48;42.33;;;;;;;7.02;94.37;99767.41;4165292;28;20279;-59
2022/12/22 11:11:54;;;;;;;160.90;42.65;;;;;;;7.03;94.47;99764.56;4178248;28;20787;-58
2022/12/22 11:14:07;;;;;;;159.88;41.63;;;;;;;7.04;94.31;99760.03;4181141;28;20279;-59
2022/12/22 11:16:15;;;;;;;161.27;43.13;;;;;;;7.08;94.78;99755.97;4180900;28;20311;-59
2022/12/22 11:18:28;;;;;;;153.20;41.00;;;;;;;7.11;94.60;99750.25;4182081;28;20273;-58
2022/12/22 11:20:37;;;;;;;152.43;40.10;;;;;;;7.11;94.58;99749.41;4181905;28;20724;-58
2022/12/22 11:22:44;;;;;;;156.73;40.30;;;;;;;7.12;94.44;99745.72;4180556;28;20700;-57
2022/12/22 11:24:51;;;;;;;156.80;41.13;;;;;;;7.11;93.89;99739.50;4166229;28;20686;-57
2022/12/22 11:27:02;;;;;;;153.80;40.70;;;;;;;7.14;93.66;99744.50;4175067;28;21173;-58
2022/12/22 11:29:22;;;;;;;156.40;41.53;;;;;;;7.16;94.18;99737.13;4182245;28;20719;-58
2022/12/22 11:31:43;;;;;;;152.97;40.27;;;;;;;7.17;93.76;99733.41;4181240;28;20660;-57
2022/12/22 11:33:58;;;;;;;155.83;40.20;;;;;;;7.21;94.12;99731.22;4172072;28;20640;-59
2022/12/22 11:36:03;;;;;;;157.57;40.33;;;;;;;7.23;94.49;99731.88;4181566;28;21281;-59
2022/12/22 11:38:13;;;;;;;158.17;40.80;;;;;;;7.22;94.34;99731.06;4180907;28;20653;-58
2022/12/22 11:40:21;;;;;;;158.00;41.40;;;;;;;7.26;94.03;99736.88;4181539;28;20740;-58
2022/12/22 11:42:46;;;;;;;156.97;40.47;;;;;;;7.24;93.43;99728.19;4182312;28;20705;-58
2022/12/22 11:44:56;;;;;;;159.30;40.83;;;;;;;7.25;93.46;99720.94;4174176;28;20729;-56
2022/12/22 11:47:03;;;;;;;153.03;40.43;;;;;;;7.27;93.34;99733.16;4177578;28;20645;-59
2022/12/22 11:49:21;;;;;;;141.17;37.87;;;;;;;7.27;93.60;99721.59;4180313;28;21194;-59
2022/12/22 11:51:34;;;;;;;139.27;38.03;;;;;;;7.30;93.51;99721.25;4172390;28;20654;-57
2022/12/22 11:53:48;;;;;;;140.00;39.27;;;;;;;7.33;93.82;99723.56;4170723;28;20644;-58
2022/12/22 11:56:02;;;;;;;141.47;40.23;;;;;;;7.37;94.62;99719.50;4171646;28;20735;-59
2022/12/22 11:58:21;;;;;;;140.97;39.57;;;;;;;7.36;94.63;99721.34;4165700;28;20629;-58
2022/12/22 12:00:25;;;;;;;144.73;39.80;;;;;;;7.35;93.75;99718.84;4167708;28;20718;-59
2022/12/22 12:03:01;;;;;;;147.27;40.40;;;;;;;7.35;93.54;99718.84;4180404;28;20712;-57
2022/12/22 12:05:28;;;;;;;146.43;41.33;;;;;;;7.35;93.46;99719.69;4168870;28;20721;-59
2022/12/22 12:07:35;;;;;;;142.53;39.47;;;;;;;7.33;92.91;99719.00;4168222;28;20773;-58
2022/12/22 12:09:44;;;;;;;143.90;39.40;;;;;;;7.35;93.13;99717.00;4181811;28;20647;-59
2022/12/22 12:11:51;;;;;;;144.57;40.77;;;;;;;7.39;93.24;99729.03;4175493;28;20736;-58
2022/12/22 12:13:59;;;;;;;141.93;39.70;;;;;;;7.41;94.04;99726.16;4175275;28;20645;-58
2022/12/22 12:16:09;;;;;;;139.23;39.33;;;;;;;7.43;94.09;99721.47;4166807;28;21107;-58
2022/12/22 12:18:33;;;;;;;140.30;40.50;;;;;;;7.43;93.78;99721.47;4170214;28;20703;-59
2022/12/22 12:20:44;;;;;;;139.67;39.23;;;;;;;7.43;93.30;99726.00;4180443;28;21248;-59
2022/12/22 12:22:56;;;;;;;139.63;39.10;;;;;;;7.44;93.97;99723.13;4181655;28;20225;-58
2022/12/22 12:25:00;;;;;;;139.80;40.23;;;;;;;7.46;93.76;99717.56;4167140;28;20636;-57
2022/12/22 12:27:09;;;;;;;140.47;39.23;;;;;;;7.49;93.80;99717.22;4181537;28;20741;-57
2022/12/22 12:29:17;;;;;;;137.47;38.67;;;;;;;7.47;93.57;99717.38;4181460;28;20293;-58
2022/12/22 12:31:23;;;;;;;136.80;39.27;;;;;;;7.46;93.00;99714.88;4179219;28;20868;-58
2022/12/22 12:33:35;;;;;;;142.20;40.10;;;;;;;7.48;93.26;99711.00;4181097;28;20708;-57
2022/12/22 12:35:46;;;;;;;138.40;39.00;;;;;;;7.48;93.47;99708.31;4179633;28;20733;-57
2022/12/22 12:37:51;;;;;;;138.50;39.23;;;;;;;7.49;93.30;99710.00;4179945;28;20644;-58
2022/12/22 12:39:59;;;;;;;137.90;38.37;;;;;;;7.48;92.92;99712.88;4172898;28;20286;-57
2022/12/22 12:42:07;;;;;;;138.50;38.27;;;;;;;7.47;92.66;99703.94;4180061;28;20739;-58
2022/12/22 12:44:11;;;;;;;138.17;39.57;;;;;;;7.46;92.34;99705.00;4180664;28;20704;-58
2022/12/22 12:47:04;;;;;;;140.83;40.43;;;;;;;7.47;92.54;99706.63;4180129;28;20758;-55
2022/12/22 12:49:44;;;;;;;139.33;40.23;;;;;;;7.53;92.95;99705.91;4129762;28;20715;-57
2022/12/22 12:51:48;;;;;;;138.07;39.10;;;;;;;7.53;93.05;99705.91;4171489;28;20748;-59
2022/12/22 12:54:22;;;;;;;137.23;38.53;;;;;;;7.56;93.32;99705.53;4180541;28;20287;-58
2022/12/22 12:56:54;;;;;;;139.43;39.37;;;;;;;7.57;93.28;99706.41;4175591;28;20736;-58
2022/12/22 12:58:56;;;;;;;134.70;39.37;;;;;;;7.57;93.45;99712.59;4180251;28;20725;-59
2022/12/22 13:00:59;;;;;;;135.57;41.03;;;;;;;7.58;93.25;99710.75;4179291;28;20755;-58
2022/12/22 13:03:04;;;;;;;134.30;38.90;;;;;;;7.60;93.50;99715.94;4177885;28;20712;-57
2022/12/22 13:05:28;;;;;;;138.27;41.37;;;;;;;7.61;92.80;99709.56;4179292;28;20637;-56
2022/12/22 13:08:08;;;;;;;137.13;38.83;;;;;;;7.64;93.66;99707.31;4180874;28;20641;-58
2022/12/22 13:10:19;;;;;;;136.37;40.07;;;;;;;7.63;93.56;99700.25;4179144;28;21421;-56
2022/12/22 13:12:34;;;;;;;137.37;39.07;;;;;;;7.63;93.55;99715.56;4169156;28;20701;-58
2022/12/22 13:14:55;;;;;;;134.77;39.23;;;;;;;7.65;93.58;99709.00;4167572;28;21191;-59
2022/12/22 13:17:30;;;;;;;130.60;37.73;;;;;;;7.63;93.04;99718.25;4170653;28;20259;-58
2022/12/22 13:19:34;;;;;;;133.10;39.03;;;;;;;7.64;93.11;99722.63;4177650;28;20989;-58
2022/12/22 13:21:42;;;;;;;134.13;38.23;;;;;;;7.64;92.76;99720.75;4175933;28;20307;-58
2022/12/22 13:23:57;;;;;;;132.40;38.40;;;;;;;7.63;92.82;99723.63;4164331;28;21214;-59
2022/12/22 13:26:00;;;;;;;132.43;38.33;;;;;;;7.63;92.52;99721.75;4163212;28;20326;-58
2022/12/22 13:28:03;;;;;;;138.00;38.37;;;;;;;7.66;92.99;99720.56;4164066;28;20688;-58
2022/12/22 13:30:11;;;;;;;139.57;38.93;;;;;;;7.62;91.98;99728.19;4168653;28;20677;-57